^^
Datos históricos de la estación: Murcia-Puente Tocinos
Diario Informe para Agosto 9, 2019 Unidades:  Ambas    Ingés   Métrico
Diario Semanal Mensual Anual
  Máxima: Mínima: Promedio:
Temperatura: 84.9 °F /  29.4 °C 71.1 °F /  21.7 °C 77.2 °F /  25.1 °C
Punto de rocio: 59.5 °F /  15.3 °C 53.2 °F /  11.8 °C 55.9 °F /  13.3 °C
Humedad: 62.9% 37.3% 49%
Velocidad viento: 12.5mph /  20.1km/h - 4.1mph /  6.6km/h
Racha viento: 20mph /  32.2km/h - -
Viento- - SSO
Presión: 29.9 in /  1012.7 hPa 29.8 in /  1009.5 hPa -
Precipitación: 0 in /  0.0 mm    
 
 
Tabla de datos para Agosto 9, 2019
Hora Temperatura Punto de rocio Presión Viento Velocidad viento Racha viento Humedad Intensidad lluvia(por hora) Nubes
00:04 75.7 °F /  24.3 °C 53.4 °F /  11.9 °C 29.8in /  1010.6hPa Oeste 4mph /  6.5km/h 7mph /  11.3km/h 45.8% 0in /  0.0mm
00:09 75.7 °F /  24.3 °C 53.4 °F /  11.9 °C 29.8in /  1010.6hPa ONO 3.9mph /  6.3km/h 6mph /  9.7km/h 46% 0in /  0.0mm
00:14 75.6 °F /  24.2 °C 53.2 °F /  11.8 °C 29.8in /  1010.6hPa ONO 3.6mph /  5.8km/h 5mph /  8km/h 46% 0in /  0.0mm
00:19 75.6 °F /  24.2 °C 53.2 °F /  11.8 °C 29.8in /  1010.6hPa NO 3mph /  4.9km/h 5mph /  8km/h 46% 0in /  0.0mm
00:24 75.6 °F /  24.2 °C 53.2 °F /  11.8 °C 29.8in /  1010.6hPa NO 2mph /  3.2km/h 5mph /  8km/h 46% 0in /  0.0mm
00:29 75.6 °F /  24.2 °C 53.6 °F /  12 °C 29.8in /  1010.6hPa NO 1.9mph /  3.1km/h 4mph /  6.4km/h 46.6% 0in /  0.0mm
00:34 75.4 °F /  24.1 °C 53.8 °F /  12.1 °C 29.8in /  1010.7hPa NO 1.8mph /  2.9km/h   47% 0in /  0.0mm
00:39 75.4 °F /  24.1 °C 53.8 °F /  12.1 °C 29.8in /  1010.7hPa NO 1.1mph /  1.8km/h 2.9mph /  4.7km/h 47% 0in /  0.0mm
00:44 75.2 °F /  24 °C 53.6 °F /  12 °C 29.8in /  1010.7hPa Calm   3.5mph /  5.6km/h 47% 0in /  0.0mm
00:49 75 °F /  23.9 °C 53.4 °F /  11.9 °C 29.8in /  1010.7hPa NO 0.5mph /  0.8km/h 3mph /  4.8km/h 47% 0in /  0.0mm
00:54 75 °F /  23.9 °C 53.4 °F /  11.9 °C 29.8in /  1010.7hPa NO 1.4mph /  2.2km/h 1mph /  1.6km/h 47% 0in /  0.0mm
00:59 75 °F /  23.9 °C 53.4 °F /  11.9 °C 29.8in /  1010.7hPa NO 0.7mph /  1.2km/h   47% 0in /  0.0mm
01:04 75 °F /  23.9 °C 53.4 °F /  11.9 °C 29.8in /  1010.7hPa Calm   4.7mph /  7.6km/h 47% 0in /  0.0mm
01:09 75 °F /  23.9 °C 53.4 °F /  11.9 °C 29.8in /  1010.7hPa North 0.7mph /  1.2km/h 5mph /  8km/h 47% 0in /  0.0mm
01:14 75 °F /  23.9 °C 53.4 °F /  11.9 °C 29.8in /  1010.7hPa North 2mph /  3.2km/h 5mph /  8km/h 47% 0in /  0.0mm
01:19 75 °F /  23.9 °C 54 °F /  12.2 °C 29.9in /  1010.8hPa North 1.8mph /  2.9km/h 3mph /  4.8km/h 47.8% 0in /  0.0mm
01:24 75 °F /  23.9 °C 54 °F /  12.2 °C 29.9in /  1010.8hPa North 1.4mph /  2.2km/h 1.4mph /  2.3km/h 48% 0in /  0.0mm
01:29 74.8 °F /  23.8 °C 54 °F /  12.2 °C 29.9in /  1010.8hPa North 0.9mph /  1.5km/h 4.6mph /  7.4km/h 48% 0in /  0.0mm
01:34 74.8 °F /  23.8 °C 53.8 °F /  12.1 °C 29.9in /  1010.8hPa Calm   5mph /  8km/h 48% 0in /  0.0mm
01:39 74.8 °F /  23.8 °C 53.8 °F /  12.1 °C 29.9in /  1010.8hPa NO 0.4mph /  0.7km/h 3mph /  4.8km/h 48% 0in /  0.0mm
01:44 74.8 °F /  23.8 °C 53.8 °F /  12.1 °C 29.9in /  1010.8hPa NO 1.4mph /  2.2km/h   48% 0in /  0.0mm
01:49 74.8 °F /  23.8 °C 53.8 °F /  12.1 °C 29.9in /  1010.8hPa NO 0.9mph /  1.5km/h   48% 0in /  0.0mm
01:54 74.7 °F /  23.7 °C 53.8 °F /  12.1 °C 29.9in /  1010.8hPa Calm     48.2% 0in /  0.0mm
01:59 74.7 °F /  23.7 °C 54.1 °F /  12.3 °C 29.9in /  1010.8hPa Calm     49% 0in /  0.0mm
02:04 74.7 °F /  23.7 °C 54.1 °F /  12.3 °C 29.9in /  1010.8hPa Calm   2mph /  3.2km/h 49% 0in /  0.0mm
02:09 74.7 °F /  23.7 °C 54.1 °F /  12.3 °C 29.9in /  1010.8hPa Calm   3.6mph /  5.8km/h 49% 0in /  0.0mm
02:14 74.7 °F /  23.7 °C 54.1 °F /  12.3 °C 29.9in /  1010.8hPa Calm   4.6mph /  7.4km/h 49% 0in /  0.0mm
02:19 74.5 °F /  23.6 °C 54.5 °F /  12.5 °C 29.9in /  1010.8hPa SSO 0.7mph /  1.1km/h 5.4mph /  8.7km/h 49.7% 0in /  0.0mm
02:24 74.3 °F /  23.5 °C 54.5 °F /  12.5 °C 29.8in /  1010.7hPa Sur 2mph /  3.2km/h 6mph /  9.7km/h 50% 0in /  0.0mm
02:29 74.3 °F /  23.5 °C 54.3 °F /  12.4 °C 29.8in /  1010.7hPa SSO 2.4mph /  3.8km/h 6mph /  9.7km/h 49.7% 0in /  0.0mm
02:34 74.5 °F /  23.6 °C 54 °F /  12.2 °C 29.8in /  1010.7hPa OSO 3.1mph /  5km/h 5mph /  8km/h 49% 0in /  0.0mm
02:39 74.7 °F /  23.7 °C 54.1 °F /  12.3 °C 29.8in /  1010.6hPa OSO 2.9mph /  4.6km/h 5mph /  8km/h 49% 0in /  0.0mm
02:44 74.7 °F /  23.7 °C 54.1 °F /  12.3 °C 29.8in /  1010.6hPa OSO 2.4mph /  3.9km/h 5mph /  8km/h 49% 0in /  0.0mm
02:49 74.7 °F /  23.7 °C 54.7 °F /  12.6 °C 29.8in /  1010.6hPa NO 2.1mph /  3.3km/h 4mph /  6.4km/h 49.9% 0in /  0.0mm
02:54 74.5 °F /  23.6 °C 54.7 °F /  12.6 °C 29.8in /  1010.6hPa NO 1.4mph /  2.2km/h 4mph /  6.4km/h 50% 0in /  0.0mm
02:59 74.3 °F /  23.5 °C 54.5 °F /  12.5 °C 29.8in /  1010.6hPa NO 0.7mph /  1.2km/h   50% 0in /  0.0mm
03:04 74.1 °F /  23.4 °C 54.3 °F /  12.4 °C 29.8in /  1010.6hPa Calm   3.6mph /  5.8km/h 50% 0in /  0.0mm
03:09 73.9 °F /  23.3 °C 54.5 °F /  12.5 °C 29.8in /  1010.4hPa Calm   4mph /  6.4km/h 50.6% 0in /  0.0mm
03:14 73.9 °F /  23.3 °C 54.7 °F /  12.6 °C 29.8in /  1010.4hPa Calm   2mph /  3.2km/h 51% 0in /  0.0mm
03:19 73.9 °F /  23.3 °C 54.7 °F /  12.6 °C 29.8in /  1010.5hPa Calm     51% 0in /  0.0mm
03:24 73.8 °F /  23.2 °C 54.5 °F /  12.5 °C 29.8in /  1010.5hPa Calm     51% 0in /  0.0mm
03:29 73.8 °F /  23.2 °C 54.5 °F /  12.5 °C 29.8in /  1010.5hPa Calm     51% 0in /  0.0mm
03:34 73.8 °F /  23.2 °C 54.5 °F /  12.5 °C 29.8in /  1010.5hPa Calm     51.1% 0in /  0.0mm
03:39 73.6 °F /  23.1 °C 54.7 °F /  12.6 °C 29.8in /  1010.5hPa Calm     51.4% 0in /  0.0mm
03:44 73.6 °F /  23.1 °C 54.9 °F /  12.7 °C 29.8in /  1010.5hPa Calm     52% 0in /  0.0mm
03:49 73.6 °F /  23.1 °C 54.9 °F /  12.7 °C 29.8in /  1010.5hPa Calm     52% 0in /  0.0mm
03:54 73.6 °F /  23.1 °C 54.9 °F /  12.7 °C 29.8in /  1010.5hPa Calm     52% 0in /  0.0mm
03:59 73.6 °F /  23.1 °C 54.9 °F /  12.7 °C 29.8in /  1010.5hPa Calm     52% 0in /  0.0mm
04:04 73.4 °F /  23 °C 54.9 °F /  12.7 °C 29.8in /  1010.5hPa Calm     52.2% 0in /  0.0mm
04:09 73.4 °F /  23 °C 55 °F /  12.8 °C 29.8in /  1010.5hPa Calm     52.7% 0in /  0.0mm
04:14 73.2 °F /  22.9 °C 55.2 °F /  12.9 °C 29.8in /  1010.5hPa Calm   4.6mph /  7.4km/h 53.4% 0in /  0.0mm
04:19 73 °F /  22.8 °C 55.4 °F /  13 °C 29.8in /  1010.6hPa NNO 0.7mph /  1.1km/h 5mph /  8km/h 54.3% 0in /  0.0mm
04:24 72.9 °F /  22.7 °C 55.6 °F /  13.1 °C 29.8in /  1010.6hPa NNO 1.8mph /  2.9km/h 3.5mph /  5.6km/h 55% 0in /  0.0mm
04:29 72.5 °F /  22.5 °C 55.4 °F /  13 °C 29.8in /  1010.6hPa ENE 1.8mph /  2.9km/h 3.5mph /  5.6km/h 55% 0in /  0.0mm
04:34 72.1 °F /  22.3 °C 55.6 °F /  13.1 °C 29.9in /  1010.8hPa SE 1.8mph /  2.9km/h 5.2mph /  8.4km/h 55.8% 0in /  0.0mm
04:39 72.1 °F /  22.3 °C 55.4 °F /  13 °C 29.9in /  1010.8hPa SSE 2.3mph /  3.7km/h 5.8mph /  9.3km/h 55.7% 0in /  0.0mm
04:44 72.1 °F /  22.3 °C 54.7 °F /  12.6 °C 29.9in /  1010.8hPa SSO 3.1mph /  5km/h 6mph /  9.7km/h 54.4% 0in /  0.0mm
04:49 72.3 °F /  22.4 °C 54.9 °F /  12.7 °C 29.9in /  1010.8hPa SSO 2.7mph /  4.3km/h 5mph /  8km/h 54.3% 0in /  0.0mm
04:54 72.5 °F /  22.5 °C 54.9 °F /  12.7 °C 29.9in /  1010.8hPa OSO 1.8mph /  2.9km/h 4.7mph /  7.6km/h 54% 0in /  0.0mm
04:59 72.7 °F /  22.6 °C 54.7 °F /  12.6 °C 29.9in /  1010.8hPa Oeste 1.9mph /  3.1km/h 5mph /  8km/h 53.3% 0in /  0.0mm
05:04 72.7 °F /  22.6 °C 54.7 °F /  12.6 °C 29.9in /  1010.9hPa ONO 2mph /  3.2km/h 5mph /  8km/h 53.3% 0in /  0.0mm
05:09 72.7 °F /  22.6 °C 54.9 °F /  12.7 °C 29.9in /  1010.9hPa NO 1.9mph /  3.1km/h 5.4mph /  8.7km/h 53.6% 0in /  0.0mm
05:14 72.7 °F /  22.6 °C 55 °F /  12.8 °C 29.9in /  1010.9hPa NO 1.8mph /  2.9km/h 6mph /  9.7km/h 53.8% 0in /  0.0mm
05:19 72.7 °F /  22.6 °C 55 °F /  12.8 °C 29.9in /  1011.0hPa NO 2.3mph /  3.7km/h 6mph /  9.7km/h 54% 0in /  0.0mm
05:24 72.5 °F /  22.5 °C 54.9 °F /  12.7 °C 29.9in /  1011.0hPa ONO 3.1mph /  5km/h 5mph /  8km/h 54% 0in /  0.0mm
05:29 72.7 °F /  22.6 °C 55 °F /  12.8 °C 29.9in /  1011.0hPa ONO 3.1mph /  5km/h 6.9mph /  11.1km/h 54% 0in /  0.0mm
05:34 72.7 °F /  22.6 °C 55 °F /  12.8 °C 29.9in /  1011.0hPa ONO 3.1mph /  5km/h 7mph /  11.3km/h 54% 0in /  0.0mm
05:39 72.7 °F /  22.6 °C 55 °F /  12.8 °C 29.9in /  1011.0hPa Oeste 3mph /  4.9km/h 6mph /  9.7km/h 54% 0in /  0.0mm
05:44 72.7 °F /  22.6 °C 55 °F /  12.8 °C 29.9in /  1011.0hPa Oeste 2.9mph /  4.7km/h 5mph /  8km/h 54% 0in /  0.0mm
05:49 72.7 °F /  22.6 °C 55 °F /  12.8 °C 29.9in /  1011.0hPa ONO 2.5mph /  4km/h 5mph /  8km/h 54% 0in /  0.0mm
05:54 72.7 °F /  22.6 °C 55 °F /  12.8 °C 29.9in /  1011.0hPa NNO 1.8mph /  2.9km/h 5mph /  8km/h 54% 0in /  0.0mm
05:59 72.5 °F /  22.5 °C 54.9 °F /  12.7 °C 29.9in /  1011.0hPa NNO 2.3mph /  3.7km/h 5mph /  8km/h 54% 0in /  0.0mm
06:04 72.3 °F /  22.4 °C 54.7 °F /  12.6 °C 29.9in /  1011.0hPa NNO 2.9mph /  4.6km/h 5mph /  8km/h 54% 0in /  0.0mm
06:09 72.3 °F /  22.4 °C 54.9 °F /  12.7 °C 29.9in /  1010.9hPa NNO 2.4mph /  3.8km/h 5mph /  8km/h 54.4% 0in /  0.0mm
06:14 72.3 °F /  22.4 °C 55.2 °F /  12.9 °C 29.9in /  1010.9hPa NNE 1.4mph /  2.2km/h 3.6mph /  5.8km/h 55% 0in /  0.0mm
06:19 72.3 °F /  22.4 °C 55.6 °F /  13.1 °C 29.9in /  1011.0hPa NE 1.6mph /  2.5km/h 4mph /  6.4km/h 55.8% 0in /  0.0mm
06:24 72 °F /  22.2 °C 55.8 °F /  13.2 °C 29.9in /  1011.0hPa NE 1.8mph /  2.9km/h 3mph /  4.8km/h 56.4% 0in /  0.0mm
06:29 71.8 °F /  22.1 °C 55.4 °F /  13 °C 29.9in /  1011.0hPa NO 1.8mph /  2.9km/h 6.9mph /  11.1km/h 56.3% 0in /  0.0mm
06:34 72 °F /  22.2 °C 55.2 °F /  12.9 °C 29.9in /  1011.1hPa ONO 1.8mph /  2.9km/h 7mph /  11.3km/h 55.7% 0in /  0.0mm
06:39 72.1 °F /  22.3 °C 55.4 °F /  13 °C 29.9in /  1011.1hPa NO 2.4mph /  3.9km/h 5.2mph /  8.4km/h 55.6% 0in /  0.0mm
06:44 72.1 °F /  22.3 °C 55.6 °F /  13.1 °C 29.9in /  1011.1hPa NO 3.6mph /  5.8km/h 6.4mph /  10.3km/h 56% 0in /  0.0mm
06:49 72 °F /  22.2 °C 55.4 °F /  13 °C 29.9in /  1011.1hPa NO 3.9mph /  6.2km/h 11.5mph /  18.5km/h 56% 0in /  0.0mm
06:54 72.1 °F /  22.3 °C 55.4 °F /  13 °C 29.9in /  1011.1hPa NO 4.3mph /  6.9km/h 12mph /  19.3km/h 55.6% 0in /  0.0mm
06:59 72.1 °F /  22.3 °C 55.6 °F /  13.1 °C 29.9in /  1011.1hPa ONO 5.5mph /  8.8km/h 12mph /  19.3km/h 55.8% 0in /  0.0mm
07:04 72 °F /  22.2 °C 55.4 °F /  13 °C 29.9in /  1011.3hPa ONO 6.9mph /  11.1km/h 10.7mph /  17.2km/h 56% 0in /  0.0mm
07:09 71.8 °F /  22.1 °C 55.2 °F /  12.9 °C 29.9in /  1011.3hPa NO 6.5mph /  10.5km/h 13mph /  20.9km/h 56% 0in /  0.0mm
07:14 71.6 °F /  22 °C 55.2 °F /  12.9 °C 29.9in /  1011.3hPa NO 5.9mph /  9.5km/h 13mph /  20.9km/h 56.3% 0in /  0.0mm
07:19 71.4 °F /  21.9 °C 55.4 °F /  13 °C 29.9in /  1011.5hPa ONO 6.3mph /  10.1km/h 13mph /  20.9km/h 57% 0in /  0.0mm
07:24 71.4 °F /  21.9 °C 55.4 °F /  13 °C 29.9in /  1011.5hPa NO 6.9mph /  11.1km/h 12mph /  19.3km/h 57% 0in /  0.0mm
07:29 71.2 °F /  21.8 °C 55.2 °F /  12.9 °C 29.9in /  1011.5hPa ONO 6.7mph /  10.8km/h 10.4mph /  16.7km/h 57% 0in /  0.0mm
07:34 71.2 °F /  21.8 °C 55.4 °F /  13 °C 29.9in /  1011.6hPa ONO 6.4mph /  10.3km/h 10mph /  16.1km/h 57.4% 0in /  0.0mm
07:39 71.1 °F /  21.7 °C 55.6 °F /  13.1 °C 29.9in /  1011.6hPa NO 5.7mph /  9.2km/h 8mph /  12.9km/h 58% 0in /  0.0mm
07:44 71.1 °F /  21.7 °C 55.6 °F /  13.1 °C 29.9in /  1011.6hPa NNE 4.3mph /  6.9km/h 5mph /  8km/h 58% 0in /  0.0mm
07:49 71.1 °F /  21.7 °C 55.6 °F /  13.1 °C 29.9in /  1011.9hPa ESE 3.7mph /  5.9km/h 6.9mph /  11.1km/h 58.1% 0in /  0.0mm
07:54 71.1 °F /  21.7 °C 55.9 °F /  13.3 °C 29.9in /  1011.9hPa SE 2.4mph /  3.9km/h 7mph /  11.3km/h 59% 0in /  0.0mm
07:59 71.1 °F /  21.7 °C 55.4 °F /  13 °C 29.9in /  1011.9hPa SSE 3.1mph /  5km/h 6mph /  9.7km/h 58% 0in /  0.0mm
08:04 71.1 °F /  21.7 °C 55.6 °F /  13.1 °C 29.9in /  1011.9hPa SSE 4mph /  6.5km/h 6mph /  9.7km/h 58% 0in /  0.0mm
08:09 71.1 °F /  21.7 °C 55.6 °F /  13.1 °C 29.9in /  1011.8hPa SSE 3.9mph /  6.2km/h 6mph /  9.7km/h 58% 0in /  0.0mm
08:14 71.2 °F /  21.8 °C 55.6 °F /  13.1 °C 29.9in /  1011.8hPa SSE 3.6mph /  5.8km/h 8.1mph /  13km/h 57.7% 0in /  0.0mm
08:19 71.2 °F /  21.8 °C 55.4 °F /  13 °C 29.9in /  1012.0hPa Sur 3.9mph /  6.2km/h 8mph /  12.9km/h 57.2% 0in /  0.0mm
08:24 71.2 °F /  21.8 °C 55.2 °F /  12.9 °C 29.9in /  1012.0hPa Sur 4.3mph /  6.9km/h 7mph /  11.3km/h 57% 0in /  0.0mm
08:29 71.2 °F /  21.8 °C 55.2 °F /  12.9 °C 29.9in /  1012.0hPa OSO 3.8mph /  6.1km/h 5mph /  8km/h 57% 0in /  0.0mm
08:34 71.4 °F /  21.9 °C 55.2 °F /  12.9 °C 29.9in /  1012.3hPa Oeste 2.9mph /  4.6km/h 6.2mph /  10km/h 56.8% 0in /  0.0mm
08:39 71.4 °F /  21.9 °C 55.2 °F /  12.9 °C 29.9in /  1012.3hPa SO 2.6mph /  4.2km/h 6mph /  9.7km/h 56.7% 0in /  0.0mm
08:44 71.4 °F /  21.9 °C 55.2 °F /  12.9 °C 29.9in /  1012.3hPa SO 2mph /  3.2km/h 6.9mph /  11.1km/h 56.4% 0in /  0.0mm
08:49 71.8 °F /  22.1 °C 55.2 °F /  12.9 °C 29.9in /  1012.4hPa OSO 2.7mph /  4.4km/h 8.5mph /  13.7km/h 56% 0in /  0.0mm
08:54 71.8 °F /  22.1 °C 55.2 °F /  12.9 °C 29.9in /  1012.4hPa OSO 4mph /  6.5km/h 11.8mph /  19km/h 56% 0in /  0.0mm
08:59 72 °F /  22.2 °C 55.4 °F /  13 °C 29.9in /  1012.4hPa Oeste 4.3mph /  7km/h 12mph /  19.3km/h 56% 0in /  0.0mm
09:04 72.1 °F /  22.3 °C 55.4 °F /  13 °C 29.9in /  1012.4hPa Oeste 4.7mph /  7.6km/h 10mph /  16.1km/h 55.8% 0in /  0.0mm
09:09 72.3 °F /  22.4 °C 55.2 °F /  12.9 °C 29.9in /  1012.4hPa Oeste 4.5mph /  7.2km/h 9.7mph /  15.6km/h 55% 0in /  0.0mm
09:14 72.3 °F /  22.4 °C 55.2 °F /  12.9 °C 29.9in /  1012.4hPa Oeste 4mph /  6.5km/h 10mph /  16.1km/h 55% 0in /  0.0mm
09:19 72.3 °F /  22.4 °C 55.4 °F /  13 °C 29.9in /  1012.5hPa ONO 4.5mph /  7.2km/h 11.5mph /  18.5km/h 55.3% 0in /  0.0mm
09:24 72.3 °F /  22.4 °C 55.2 °F /  12.9 °C 29.9in /  1012.5hPa ONO 5.4mph /  8.7km/h 12mph /  19.3km/h 55.1% 0in /  0.0mm
09:29 72.3 °F /  22.4 °C 55.4 °F /  13 °C 29.9in /  1012.5hPa Oeste 5.3mph /  8.6km/h 9mph /  14.5km/h 55.4% 0in /  0.0mm
09:34 72.7 °F /  22.6 °C 55.6 °F /  13.1 °C 29.9in /  1012.5hPa ONO 5.2mph /  8.4km/h 7.6mph /  12.2km/h 55% 0in /  0.0mm
09:39 72.7 °F /  22.6 °C 55.6 °F /  13.1 °C 29.9in /  1012.5hPa Oeste 4.8mph /  7.7km/h 8.5mph /  13.7km/h 55% 0in /  0.0mm
09:44 72.9 °F /  22.7 °C 55.6 °F /  13.1 °C 29.9in /  1012.5hPa OSO 4mph /  6.5km/h 11.2mph /  18km/h 54.7% 0in /  0.0mm
09:49 72.9 °F /  22.7 °C 55.2 °F /  12.9 °C 29.9in /  1012.7hPa OSO 4.7mph /  7.5km/h 11mph /  17.7km/h 54.1% 0in /  0.0mm
09:54 73 °F /  22.8 °C 55.4 °F /  13 °C 29.9in /  1012.7hPa OSO 5.9mph /  9.5km/h 10mph /  16.1km/h 54.2% 0in /  0.0mm
09:59 73.2 °F /  22.9 °C 55.6 °F /  13.1 °C 29.9in /  1012.7hPa Oeste 5.3mph /  8.6km/h 9mph /  14.5km/h 54% 0in /  0.0mm
10:04 73.4 °F /  23 °C 55.2 °F /  12.9 °C 29.9in /  1012.7hPa OSO 4.7mph /  7.6km/h 8.1mph /  13km/h 53.1% 0in /  0.0mm
10:09 73.2 °F /  22.9 °C 55.6 °F /  13.1 °C 29.9in /  1012.6hPa ONO 4.9mph /  7.9km/h 8.1mph /  13km/h 53.9% 0in /  0.0mm
10:14 73.6 °F /  23.1 °C 55.8 °F /  13.2 °C 29.9in /  1012.6hPa ONO 5.2mph /  8.4km/h 8.5mph /  13.7km/h 54% 0in /  0.0mm
10:19 73.8 °F /  23.2 °C 55.9 °F /  13.3 °C 29.9in /  1012.6hPa ONO 5.3mph /  8.5km/h 9.2mph /  14.8km/h 53.9% 0in /  0.0mm
10:24 73.9 °F /  23.3 °C 55.8 °F /  13.2 °C 29.9in /  1012.5hPa Oeste 5.4mph /  8.7km/h 10.4mph /  16.7km/h 53% 0in /  0.0mm
10:29 74.1 °F /  23.4 °C 55.8 °F /  13.2 °C 29.9in /  1012.5hPa ONO 5.7mph /  9.2km/h 10mph /  16.1km/h 52.7% 0in /  0.0mm
10:34 74.7 °F /  23.7 °C 55.9 °F /  13.3 °C 29.9in /  1012.5hPa ONO 6.2mph /  10km/h 8mph /  12.9km/h 52.2% 0in /  0.0mm
10:39 74.8 °F /  23.8 °C 55.6 °F /  13.1 °C 29.9in /  1012.5hPa NO 5.7mph /  9.1km/h 9.2mph /  14.8km/h 51.1% 0in /  0.0mm
10:44 75 °F /  23.9 °C 55.6 °F /  13.1 °C 29.9in /  1012.5hPa NO 4.7mph /  7.6km/h 9.2mph /  14.8km/h 50.9% 0in /  0.0mm
10:49 75.4 °F /  24.1 °C 55.9 °F /  13.3 °C 29.9in /  1012.5hPa NO 4.8mph /  7.8km/h 8mph /  12.9km/h 51% 0in /  0.0mm
10:54 75.7 °F /  24.3 °C 55.9 °F /  13.3 °C 29.9in /  1012.5hPa Oeste 5.2mph /  8.4km/h 7.4mph /  11.9km/h 50.3% 0in /  0.0mm
10:59 75.9 °F /  24.4 °C 55.4 °F /  13 °C 29.9in /  1012.5hPa Oeste 4.8mph /  7.7km/h 7mph /  11.3km/h 49.1% 0in /  0.0mm
11:04 75.9 °F /  24.4 °C 55.2 °F /  12.9 °C 29.9in /  1012.7hPa ONO 4.3mph /  6.9km/h 7mph /  11.3km/h 48.8% 0in /  0.0mm
11:09 76.1 °F /  24.5 °C 55.6 °F /  13.1 °C 29.9in /  1012.7hPa Oeste 3.9mph /  6.3km/h 7.4mph /  11.9km/h 49% 0in /  0.0mm
11:14 76.3 °F /  24.6 °C 55.4 °F /  13 °C 29.9in /  1012.7hPa SO 3.1mph /  5km/h 7mph /  11.3km/h 48.6% 0in /  0.0mm
11:19 76.5 °F /  24.7 °C 55.6 °F /  13.1 °C 29.9in /  1012.7hPa OSO 3.3mph /  5.3km/h 9.2mph /  14.8km/h 48.6% 0in /  0.0mm
11:24 76.5 °F /  24.7 °C 55.2 °F /  12.9 °C 29.9in /  1012.6hPa ONO 3.6mph /  5.8km/h 9mph /  14.5km/h 48% 0in /  0.0mm
11:29 76.6 °F /  24.8 °C 55.4 °F /  13 °C 29.9in /  1012.6hPa OSO 3.6mph /  5.8km/h 6.2mph /  10km/h 47.6% 0in /  0.0mm
11:34 77.2 °F /  25.1 °C 55.4 °F /  13 °C 29.9in /  1012.7hPa Sur 3.6mph /  5.8km/h 6mph /  9.7km/h 47% 0in /  0.0mm
11:39 77.5 °F /  25.3 °C 55.8 °F /  13.2 °C 29.9in /  1012.7hPa ESE 3mph /  4.9km/h 5.2mph /  8.4km/h 47% 0in /  0.0mm
11:44 78.3 °F /  25.7 °C 55.8 °F /  13.2 °C 29.9in /  1012.7hPa NO 2mph /  3.2km/h 5mph /  8km/h 46% 0in /  0.0mm
11:49 78.6 °F /  25.9 °C 55.8 °F /  13.2 °C 29.9in /  1012.7hPa NO 2mph /  3.2km/h 7.4mph /  11.9km/h 45.5% 0in /  0.0mm
11:54 79.2 °F /  26.2 °C 55.4 °F /  13 °C 29.9in /  1012.5hPa SSO 2mph /  3.2km/h 10.4mph /  16.7km/h 44.1% 0in /  0.0mm
11:59 79 °F /  26.1 °C 55.8 °F /  13.2 °C 29.9in /  1012.5hPa SO 3.2mph /  5.2km/h 10.4mph /  16.7km/h 45% 0in /  0.0mm
12:04 78.6 °F /  25.9 °C 55.6 °F /  13.1 °C 29.9in /  1012.5hPa OSO 4.7mph /  7.6km/h 10mph /  16.1km/h 45% 0in /  0.0mm
12:09 78.6 °F /  25.9 °C 55.6 °F /  13.1 °C 29.9in /  1012.4hPa OSO 4.5mph /  7.3km/h 8.1mph /  13km/h 45% 0in /  0.0mm
12:14 78.8 °F /  26 °C 55.6 °F /  13.1 °C 29.9in /  1012.4hPa NNO 4.3mph /  6.9km/h 7mph /  11.3km/h 45% 0in /  0.0mm
12:19 79.2 °F /  26.2 °C 55.9 °F /  13.3 °C 29.9in /  1012.4hPa ENE 3.9mph /  6.3km/h 6.9mph /  11.1km/h 45% 0in /  0.0mm
12:24 79.3 °F /  26.3 °C 56.1 °F /  13.4 °C 29.9in /  1012.4hPa NE 3.1mph /  5km/h 8.1mph /  13km/h 44.9% 0in /  0.0mm
12:29 79.5 °F /  26.4 °C 55.8 °F /  13.2 °C 29.9in /  1012.4hPa Este 3.1mph /  5km/h 8mph /  12.9km/h 44.1% 0in /  0.0mm
12:34 79.9 °F /  26.6 °C 55.4 °F /  13 °C 29.9in /  1012.4hPa ONO 3.1mph /  5km/h 7mph /  11.3km/h 43% 0in /  0.0mm
12:39 80.1 °F /  26.7 °C 55.4 °F /  13 °C 29.9in /  1012.3hPa ENE 3.1mph /  5km/h 7mph /  11.3km/h 42.8% 0in /  0.0mm
12:44 80.6 °F /  27 °C 55.6 °F /  13.1 °C 29.9in /  1012.3hPa Este 3.1mph /  5km/h 6mph /  9.7km/h 42.2% 0in /  0.0mm
12:49 81.3 °F /  27.4 °C 55.8 °F /  13.2 °C 29.9in /  1012.3hPa NO 2.9mph /  4.6km/h 9.2mph /  14.8km/h 41.6% 0in /  0.0mm
12:54 81.5 °F /  27.5 °C 55.4 °F /  13 °C 29.9in /  1012.1hPa ONO 2.4mph /  3.9km/h 12.7mph /  20.4km/h 41% 0in /  0.0mm
12:59 80.8 °F /  27.1 °C 55.6 °F /  13.1 °C 29.9in /  1012.1hPa NO 3.8mph /  6.1km/h 13mph /  20.9km/h 41.9% 0in /  0.0mm
13:04 81 °F /  27.2 °C 55.2 °F /  12.9 °C 29.9in /  1012.1hPa North 5.4mph /  8.7km/h 10.4mph /  16.7km/h 41.4% 0in /  0.0mm
13:09 81.1 °F /  27.3 °C 55 °F /  12.8 °C 29.9in /  1012.0hPa ONO 5.2mph /  8.3km/h 12.7mph /  20.4km/h 40.8% 0in /  0.0mm
13:14 81.1 °F /  27.3 °C 55 °F /  12.8 °C 29.9in /  1012.0hPa ONO 4.7mph /  7.6km/h 13mph /  20.9km/h 40.8% 0in /  0.0mm
13:19 81.3 °F /  27.4 °C 54.9 °F /  12.7 °C 29.9in /  1012.0hPa Oeste 5mph /  8km/h 10.4mph /  16.7km/h 40.3% 0in /  0.0mm
13:24 81.9 °F /  27.7 °C 55 °F /  12.8 °C 29.9in /  1011.9hPa Oeste 5.4mph /  8.7km/h 10mph /  16.1km/h 40% 0in /  0.0mm
13:29 81.9 °F /  27.7 °C 55 °F /  12.8 °C 29.9in /  1011.9hPa SSO 5.4mph /  8.7km/h 9.2mph /  14.8km/h 39.8% 0in /  0.0mm
13:34 82 °F /  27.8 °C 55.4 °F /  13 °C 29.9in /  1011.9hPa SE 5.4mph /  8.7km/h 9mph /  14.5km/h 39.9% 0in /  0.0mm
13:39 82.8 °F /  28.2 °C 55.2 °F /  12.9 °C 29.9in /  1011.7hPa Oeste 4.9mph /  7.9km/h 8.5mph /  13.7km/h 39% 0in /  0.0mm
13:44 82.8 °F /  28.2 °C 55.2 °F /  12.9 °C 29.9in /  1011.7hPa SSO 4mph /  6.5km/h 10.4mph /  16.7km/h 39% 0in /  0.0mm
13:49 82.6 °F /  28.1 °C 55 °F /  12.8 °C 29.9in /  1011.7hPa SE 4.4mph /  7.1km/h 10.2mph /  16.4km/h 39% 0in /  0.0mm
13:54 82.4 °F /  28 °C 55 °F /  12.8 °C 29.9in /  1011.6hPa OSO 5.2mph /  8.4km/h 10.4mph /  16.7km/h 39% 0in /  0.0mm
13:59 82.6 °F /  28.1 °C 55.2 °F /  12.9 °C 29.9in /  1011.6hPa Sur 5mph /  8km/h 9mph /  14.5km/h 39% 0in /  0.0mm
14:04 83.1 °F /  28.4 °C 55.6 °F /  13.1 °C 29.9in /  1011.6hPa SE 4.7mph /  7.6km/h 7mph /  11.3km/h 38.8% 0in /  0.0mm
14:09 83.8 °F /  28.8 °C 55.6 °F /  13.1 °C 29.9in /  1011.3hPa NO 4mph /  6.5km/h 5.8mph /  9.3km/h 38% 0in /  0.0mm
14:14 84.4 °F /  29.1 °C 55.6 °F /  13.1 °C 29.9in /  1011.3hPa North 2.9mph /  4.7km/h 6.2mph /  10km/h 37.5% 0in /  0.0mm
14:19 84.6 °F /  29.2 °C 55.6 °F /  13.1 °C 29.9in /  1011.3hPa Este 3mph /  4.8km/h 6.9mph /  11.1km/h 37.3% 0in /  0.0mm
14:24 84.4 °F /  29.1 °C 55.6 °F /  13.1 °C 29.9in /  1011.1hPa SE 3.1mph /  5km/h 8.5mph /  13.7km/h 37.3% 0in /  0.0mm
14:29 84 °F /  28.9 °C 56.1 °F /  13.4 °C 29.9in /  1011.1hPa SE 3.7mph /  5.9km/h 14mph /  22.5km/h 38.6% 0in /  0.0mm
14:34 83.8 °F /  28.8 °C 56.1 °F /  13.4 °C 29.9in /  1011.1hPa ESE 4.7mph /  7.6km/h 14mph /  22.5km/h 38.9% 0in /  0.0mm
14:39 83.8 °F /  28.8 °C 57 °F /  13.9 °C 29.9in /  1011.1hPa SE 5.2mph /  8.4km/h 15.9mph /  25.6km/h 40.3% 0in /  0.0mm
14:44 83.3 °F /  28.5 °C 57.9 °F /  14.4 °C 29.9in /  1011.1hPa SE 6.2mph /  10km/h 16.1mph /  25.9km/h 42.1% 0in /  0.0mm
14:49 82.6 °F /  28.1 °C 57.6 °F /  14.2 °C 29.9in /  1011.1hPa SE 7.5mph /  12km/h 15mph /  24.1km/h 42.8% 0in /  0.0mm
14:54 82.4 °F /  28 °C 57.7 °F /  14.3 °C 29.9in /  1011.0hPa SE 9.7mph /  15.6km/h 15mph /  24.1km/h 43.3% 0in /  0.0mm
14:59 82.6 °F /  28.1 °C 57.6 °F /  14.2 °C 29.9in /  1011.0hPa ESE 8.8mph /  14.1km/h 13mph /  20.9km/h 42.6% 0in /  0.0mm
15:04 82.9 °F /  28.3 °C 57.4 °F /  14.1 °C 29.9in /  1011.0hPa ESE 7.6mph /  12.2km/h 12mph /  19.3km/h 41.9% 0in /  0.0mm
15:09 83.1 °F /  28.4 °C 57 °F /  13.9 °C 29.9in /  1011.0hPa ESE 7.1mph /  11.4km/h 12mph /  19.3km/h 41.1% 0in /  0.0mm
15:14 83.1 °F /  28.4 °C 57 °F /  13.9 °C 29.9in /  1011.0hPa Este 5.9mph /  9.5km/h 12mph /  19.3km/h 41% 0in /  0.0mm
15:19 83.5 °F /  28.6 °C 57.4 °F /  14.1 °C 29.9in /  1011.0hPa ESE 5.5mph /  8.8km/h 8.7mph /  14km/h 41.1% 0in /  0.0mm
15:24 83.7 °F /  28.7 °C 56.8 °F /  13.8 °C 29.9in /  1010.9hPa ESE 4.7mph /  7.6km/h 10.4mph /  16.7km/h 40% 0in /  0.0mm
15:29 83.7 °F /  28.7 °C 57 °F /  13.9 °C 29.9in /  1010.9hPa ESE 4.8mph /  7.8km/h 10mph /  16.1km/h 40.2% 0in /  0.0mm
15:34 83.8 °F /  28.8 °C 56.8 °F /  13.8 °C 29.9in /  1010.9hPa SE 5.2mph /  8.4km/h 10mph /  16.1km/h 40% 0in /  0.0mm
15:39 83.8 °F /  28.8 °C 57.2 °F /  14 °C 29.9in /  1010.9hPa ESE 5mph /  8.1km/h 9.2mph /  14.8km/h 40.4% 0in /  0.0mm
15:44 84 °F /  28.9 °C 57.4 °F /  14.1 °C 29.9in /  1010.9hPa Este 4.7mph /  7.6km/h 9mph /  14.5km/h 40.4% 0in /  0.0mm
15:49 84.4 °F /  29.1 °C 57.6 °F /  14.2 °C 29.9in /  1010.9hPa ESE 4.5mph /  7.3km/h 13.8mph /  22.2km/h 40.2% 0in /  0.0mm
15:54 84.4 °F /  29.1 °C 57.4 °F /  14.1 °C 29.8in /  1010.7hPa SE 4.3mph /  6.9km/h 14mph /  22.5km/h 40% 0in /  0.0mm
15:59 84.6 °F /  29.2 °C 57.9 °F /  14.4 °C 29.8in /  1010.7hPa SE 5.2mph /  8.3km/h 11.2mph /  18km/h 40.5% 0in /  0.0mm
16:04 84.6 °F /  29.2 °C 57.6 °F /  14.2 °C 29.8in /  1010.7hPa SSE 6.2mph /  10km/h 12mph /  19.3km/h 39.9% 0in /  0.0mm
16:09 84.7 °F /  29.3 °C 57.7 °F /  14.3 °C 29.8in /  1010.6hPa SE 5.8mph /  9.4km/h 12mph /  19.3km/h 40% 0in /  0.0mm
16:14 84.7 °F /  29.3 °C 57.7 °F /  14.3 °C 29.8in /  1010.6hPa ESE 5.2mph /  8.4km/h 12.7mph /  20.4km/h 40% 0in /  0.0mm
16:19 84.6 °F /  29.2 °C 58.1 °F /  14.5 °C 29.8in /  1010.6hPa ESE 6.2mph /  10km/h 19.2mph /  30.9km/h 40.6% 0in /  0.0mm
16:24 84 °F /  28.9 °C 57.7 °F /  14.3 °C 29.8in /  1010.4hPa SE 8.1mph /  13km/h 20mph /  32.2km/h 40.8% 0in /  0.0mm
16:29 84.2 °F /  29 °C 57.7 °F /  14.3 °C 29.8in /  1010.4hPa SE 9.2mph /  14.8km/h 18.4mph /  29.6km/h 40.9% 0in /  0.0mm
16:34 83.5 °F /  28.6 °C 57.6 °F /  14.2 °C 29.8in /  1010.4hPa SE 11.2mph /  18km/h 18mph /  29km/h 41.5% 0in /  0.0mm
16:39 83.3 °F /  28.5 °C 57.6 °F /  14.2 °C 29.8in /  1010.2hPa SE 11.2mph /  18km/h 18mph /  29km/h 41.4% 0in /  0.0mm
16:44 83.1 °F /  28.4 °C 57.6 °F /  14.2 °C 29.8in /  1010.2hPa SE 11.2mph /  18km/h 15.2mph /  24.5km/h 42% 0in /  0.0mm
16:49 83.3 °F /  28.5 °C 57.7 °F /  14.3 °C 29.8in /  1010.2hPa SE 10.3mph /  16.5km/h 15mph /  24.1km/h 42% 0in /  0.0mm
16:54 83.5 °F /  28.6 °C 57.9 °F /  14.4 °C 29.8in /  1010.2hPa ESE 8.5mph /  13.7km/h 15mph /  24.1km/h 42% 0in /  0.0mm
16:59 83.5 °F /  28.6 °C 58.3 °F /  14.6 °C 29.8in /  1010.2hPa SE 7.5mph /  12km/h 12mph /  19.3km/h 42.4% 0in /  0.0mm
17:04 83.5 °F /  28.6 °C 58.6 °F /  14.8 °C 29.8in /  1010.2hPa ESE 6.2mph /  10km/h 12.3mph /  19.8km/h 43% 0in /  0.0mm
17:09 83.5 °F /  28.6 °C 58.6 °F /  14.8 °C 29.8in /  1010.0hPa SE 6.6mph /  10.6km/h 16.1mph /  25.9km/h 43% 0in /  0.0mm
17:14 83.3 °F /  28.5 °C 58.5 °F /  14.7 °C 29.8in /  1010.0hPa ESE 7.4mph /  11.9km/h 16.1mph /  25.9km/h 42.9% 0in /  0.0mm
17:19 83.3 °F /  28.5 °C 58.5 °F /  14.7 °C 29.8in /  1010.0hPa SE 7.8mph /  12.5km/h 16mph /  25.7km/h 42.8% 0in /  0.0mm
17:24 83.5 °F /  28.6 °C 58.1 °F /  14.5 °C 29.8in /  1009.9hPa SE 8.5mph /  13.7km/h 14.5mph /  23.3km/h 42% 0in /  0.0mm
17:29 83.7 °F /  28.7 °C 57.9 °F /  14.4 °C 29.8in /  1009.9hPa SE 8.1mph /  13.1km/h 15mph /  24.1km/h 41.7% 0in /  0.0mm
17:34 84 °F /  28.9 °C 57.7 °F /  14.3 °C 29.8in /  1009.9hPa SSE 7.4mph /  11.9km/h 15mph /  24.1km/h 41% 0in /  0.0mm
17:39 84.7 °F /  29.3 °C 57.9 °F /  14.4 °C 29.8in /  1009.7hPa SSE 7mph /  11.3km/h 13.8mph /  22.2km/h 40.4% 0in /  0.0mm
17:44 84.9 °F /  29.4 °C 57.9 °F /  14.4 °C 29.8in /  1009.7hPa SE 6.4mph /  10.3km/h 15mph /  24.1km/h 40% 0in /  0.0mm
17:49 84.6 °F /  29.2 °C 57.7 °F /  14.3 °C 29.8in /  1009.7hPa SE 7.1mph /  11.5km/h 19.7mph /  31.7km/h 40.2% 0in /  0.0mm
17:54 84.4 °F /  29.1 °C 58.1 °F /  14.5 °C 29.8in /  1009.7hPa SE 8.5mph /  13.7km/h 20mph /  32.2km/h 41% 0in /  0.0mm
17:59 84.2 °F /  29 °C 57.9 °F /  14.4 °C 29.8in /  1009.7hPa SE 9.3mph /  14.9km/h 19mph /  30.6km/h 41% 0in /  0.0mm
18:04 84 °F /  28.9 °C 57.9 °F /  14.4 °C 29.8in /  1009.7hPa SE 10.2mph /  16.4km/h 17.3mph /  27.8km/h 41.1% 0in /  0.0mm
18:09 84.2 °F /  29 °C 57.9 °F /  14.4 °C 29.8in /  1009.7hPa SE 10mph /  16.1km/h 17.8mph /  28.6km/h 41% 0in /  0.0mm
18:14 83.8 °F /  28.8 °C 57.7 °F /  14.3 °C 29.8in /  1009.7hPa SE 9.7mph /  15.6km/h 18.4mph /  29.6km/h 41.2% 0in /  0.0mm
18:19 83.7 °F /  28.7 °C 57.9 °F /  14.4 °C 29.8in /  1009.7hPa SE 10.1mph /  16.2km/h 18mph /  29km/h 41.8% 0in /  0.0mm
18:24 83.8 °F /  28.8 °C 57.7 °F /  14.3 °C 29.8in /  1009.7hPa SE 10.7mph /  17.2km/h 16mph /  25.7km/h 41% 0in /  0.0mm
18:29 83.8 °F /  28.8 °C 57.7 °F /  14.3 °C 29.8in /  1009.7hPa SE 10.3mph /  16.6km/h 17.5mph /  28.2km/h 41% 0in /  0.0mm
18:34 83.3 °F /  28.5 °C 57.6 °F /  14.2 °C 29.8in /  1009.7hPa SE 9.7mph /  15.6km/h 18.4mph /  29.6km/h 41.6% 0in /  0.0mm
18:39 82.9 °F /  28.3 °C 57.4 °F /  14.1 °C 29.8in /  1009.7hPa SE 10.4mph /  16.8km/h 18.5mph /  29.8km/h 42% 0in /  0.0mm
18:44 82.8 °F /  28.2 °C 57.4 °F /  14.1 °C 29.8in /  1009.7hPa SE 12.5mph /  20.1km/h 19mph /  30.6km/h 42% 0in /  0.0mm
18:49 82.8 °F /  28.2 °C 57.4 °F /  14.1 °C 29.8in /  1009.7hPa SE 11.7mph /  18.9km/h 18.1mph /  29.1km/h 42.2% 0in /  0.0mm
18:54 82.8 °F /  28.2 °C 57.2 °F /  14 °C 29.8in /  1009.7hPa SE 10.2mph /  16.4km/h 18.4mph /  29.6km/h 42% 0in /  0.0mm
18:59 82.8 °F /  28.2 °C 57.2 °F /  14 °C 29.8in /  1009.7hPa SE 10.6mph /  17.1km/h 18mph /  29km/h 42% 0in /  0.0mm
19:04 82.9 °F /  28.3 °C 57.4 °F /  14.1 °C 29.8in /  1009.7hPa SE 11.2mph /  18km/h 16mph /  25.7km/h 42% 0in /  0.0mm
19:09 82.9 °F /  28.3 °C 56.8 °F /  13.8 °C 29.8in /  1009.5hPa SE 10.5mph /  16.9km/h 17.3mph /  27.8km/h 41% 0in /  0.0mm
19:14 82.8 °F /  28.2 °C 57 °F /  13.9 °C 29.8in /  1009.5hPa SSE 9.2mph /  14.8km/h 17mph /  27.4km/h 41.5% 0in /  0.0mm
19:19 82.6 °F /  28.1 °C 56.8 °F /  13.8 °C 29.8in /  1009.5hPa SSE 8.9mph /  14.4km/h 15.6mph /  25.1km/h 41.6% 0in /  0.0mm
19:24 82.2 °F /  27.9 °C 56.3 °F /  13.5 °C 29.8in /  1009.5hPa SE 8.5mph /  13.7km/h 16.1mph /  25.9km/h 41.2% 0in /  0.0mm
19:29 82 °F /  27.8 °C 56.5 °F /  13.6 °C 29.8in /  1009.5hPa SE 8.4mph /  13.5km/h 16mph /  25.7km/h 41.7% 0in /  0.0mm
19:34 81.9 °F /  27.7 °C 56.5 °F /  13.6 °C 29.8in /  1009.6hPa SE 8.1mph /  13km/h 12.7mph /  20.4km/h 42% 0in /  0.0mm
19:39 81.5 °F /  27.5 °C 56.3 °F /  13.5 °C 29.8in /  1009.6hPa SE 7.8mph /  12.6km/h 13.8mph /  22.2km/h 42.1% 0in /  0.0mm
19:44 81.1 °F /  27.3 °C 56.3 °F /  13.5 °C 29.8in /  1009.6hPa SE 7.4mph /  11.9km/h 14mph /  22.5km/h 42.6% 0in /  0.0mm
19:49 81 °F /  27.2 °C 56.3 °F /  13.5 °C 29.8in /  1009.6hPa SE 7.1mph /  11.4km/h 12mph /  19.3km/h 42.9% 0in /  0.0mm
19:54 80.8 °F /  27.1 °C 56.3 °F /  13.5 °C 29.8in /  1009.6hPa ESE 6.4mph /  10.3km/h 11.5mph /  18.5km/h 43% 0in /  0.0mm
19:59 80.6 °F /  27 °C 55.9 °F /  13.3 °C 29.8in /  1009.6hPa SE 6.3mph /  10.2km/h 12mph /  19.3km/h 43% 0in /  0.0mm
20:04 80.2 °F /  26.8 °C 56.1 °F /  13.4 °C 29.8in /  1009.7hPa SE 6.2mph /  10km/h 11.5mph /  18.5km/h 43.5% 0in /  0.0mm
20:09 80.2 °F /  26.8 °C 56.3 °F /  13.5 °C 29.8in /  1009.7hPa SE 6.3mph /  10.1km/h 12mph /  19.3km/h 44% 0in /  0.0mm
20:14 80.2 °F /  26.8 °C 56.3 °F /  13.5 °C 29.8in /  1009.7hPa SE 6.4mph /  10.3km/h 12mph /  19.3km/h 44% 0in /  0.0mm
20:19 80.1 °F /  26.7 °C 56.1 °F /  13.4 °C 29.8in /  1009.8hPa SE 6.3mph /  10.2km/h 9mph /  14.5km/h 44% 0in /  0.0mm
20:24 80.2 °F /  26.8 °C 56.3 °F /  13.5 °C 29.8in /  1009.8hPa SE 6.2mph /  10km/h 7mph /  11.3km/h 44% 0in /  0.0mm
20:29 80.2 °F /  26.8 °C 56.3 °F /  13.5 °C 29.8in /  1009.8hPa SE 5.5mph /  8.8km/h 6.9mph /  11.1km/h 44% 0in /  0.0mm
20:34 80.2 °F /  26.8 °C 56.5 °F /  13.6 °C 29.8in /  1009.9hPa ESE 4mph /  6.5km/h 7mph /  11.3km/h 44.2% 0in /  0.0mm
20:39 79.9 °F /  26.6 °C 56.7 °F /  13.7 °C 29.8in /  1009.9hPa ESE 4mph /  6.5km/h 7.4mph /  11.9km/h 45% 0in /  0.0mm
20:44 79.3 °F /  26.3 °C 56.7 °F /  13.7 °C 29.8in /  1009.9hPa Este 4mph /  6.5km/h 7mph /  11.3km/h 45.6% 0in /  0.0mm
20:49 79.2 °F /  26.2 °C 56.7 °F /  13.7 °C 29.8in /  1010.2hPa ENE 3.7mph /  5.9km/h 6mph /  9.7km/h 46% 0in /  0.0mm
20:54 79 °F /  26.1 °C 56.3 °F /  13.5 °C 29.8in /  1010.2hPa NE 3.1mph /  5km/h 6.2mph /  10km/h 46% 0in /  0.0mm
20:59 78.4 °F /  25.8 °C 56.1 °F /  13.4 °C 29.8in /  1010.2hPa ENE 3.3mph /  5.3km/h 6.2mph /  10km/h 46.2% 0in /  0.0mm
21:04 78.3 °F /  25.7 °C 56.5 °F /  13.6 °C 29.8in /  1010.4hPa ENE 3.6mph /  5.8km/h 6mph /  9.7km/h 47% 0in /  0.0mm
21:09 78.3 °F /  25.7 °C 56.3 °F /  13.5 °C 29.8in /  1010.4hPa ENE 3.4mph /  5.5km/h 6.9mph /  11.1km/h 47% 0in /  0.0mm
21:14 77.9 °F /  25.5 °C 56.5 °F /  13.6 °C 29.8in /  1010.4hPa Este 3.1mph /  5km/h 7mph /  11.3km/h 47.8% 0in /  0.0mm
21:19 77.7 °F /  25.4 °C 56.7 °F /  13.7 °C 29.8in /  1010.6hPa ESE 3.2mph /  5.2km/h 6.2mph /  10km/h 48.2% 0in /  0.0mm
21:24 77.5 °F /  25.3 °C 56.8 °F /  13.8 °C 29.8in /  1010.6hPa ESE 3.6mph /  5.8km/h 7.4mph /  11.9km/h 49% 0in /  0.0mm
21:29 77.4 °F /  25.2 °C 56.8 °F /  13.8 °C 29.8in /  1010.6hPa SE 4mph /  6.4km/h 7mph /  11.3km/h 49% 0in /  0.0mm
21:34 77.5 °F /  25.3 °C 57.2 °F /  14 °C 29.8in /  1010.7hPa SE 4.7mph /  7.6km/h 7mph /  11.3km/h 49.5% 0in /  0.0mm
21:39 77.4 °F /  25.2 °C 57.4 °F /  14.1 °C 29.8in /  1010.7hPa ESE 4.1mph /  6.6km/h 5mph /  8km/h 50% 0in /  0.0mm
21:44 77.4 °F /  25.2 °C 57.4 °F /  14.1 °C 29.8in /  1010.7hPa ESE 2.9mph /  4.6km/h 5mph /  8km/h 50% 0in /  0.0mm
21:49 77.4 °F /  25.2 °C 57.4 °F /  14.1 °C 29.9in /  1010.9hPa ESE 1.9mph /  3.1km/h 3mph /  4.8km/h 50% 0in /  0.0mm
21:54 77.4 °F /  25.2 °C 57.4 °F /  14.1 °C 29.9in /  1010.9hPa Calm   4.7mph /  7.6km/h 50% 0in /  0.0mm
21:59 77.4 °F /  25.2 °C 57.4 °F /  14.1 °C 29.9in /  1010.9hPa SSE 1.1mph /  1.7km/h 5mph /  8km/h 50% 0in /  0.0mm
22:04 77.4 °F /  25.2 °C 57.4 °F /  14.1 °C 29.9in /  1011.3hPa SSE 2.4mph /  3.9km/h 5mph /  8km/h 50% 0in /  0.0mm
22:09 77.2 °F /  25.1 °C 57.2 °F /  14 °C 29.9in /  1011.3hPa SSE 2.4mph /  3.9km/h 4.7mph /  7.6km/h 50% 0in /  0.0mm
22:14 77.2 °F /  25.1 °C 57.4 °F /  14.1 °C 29.9in /  1011.3hPa Sur 2.4mph /  3.9km/h 5.9mph /  9.5km/h 50.6% 0in /  0.0mm
22:19 77 °F /  25 °C 57.4 °F /  14.1 °C 29.9in /  1011.4hPa NNO 2.5mph /  4.1km/h 6mph /  9.7km/h 51% 0in /  0.0mm
22:24 76.6 °F /  24.8 °C 57.7 °F /  14.3 °C 29.9in /  1011.4hPa NNO 2.9mph /  4.7km/h 5mph /  8km/h 51.9% 0in /  0.0mm
22:29 76.6 °F /  24.8 °C 58.3 °F /  14.6 °C 29.9in /  1011.4hPa NO 2.5mph /  4km/h 3.5mph /  5.6km/h 53% 0in /  0.0mm
22:34 76.5 °F /  24.7 °C 58.5 °F /  14.7 °C 29.9in /  1011.5hPa NO 1.8mph /  2.9km/h 3mph /  4.8km/h 53.8% 0in /  0.0mm
22:39 76.5 °F /  24.7 °C 58.6 °F /  14.8 °C 29.9in /  1011.5hPa NO 1.2mph /  1.9km/h 2.4mph /  3.9km/h 54% 0in /  0.0mm
22:44 76.3 °F /  24.6 °C 59 °F /  15 °C 29.9in /  1011.5hPa Calm   4.6mph /  7.4km/h 55% 0in /  0.0mm
22:49 76.1 °F /  24.5 °C 59.2 °F /  15.1 °C 29.9in /  1011.6hPa ONO 0.6mph /  1km/h 5mph /  8km/h 56% 0in /  0.0mm
22:54 75.9 °F /  24.4 °C 59.4 °F /  15.2 °C 29.9in /  1011.6hPa ONO 1.8mph /  2.9km/h 3.5mph /  5.6km/h 56.5% 0in /  0.0mm
22:59 75.7 °F /  24.3 °C 59.4 °F /  15.2 °C 29.9in /  1011.6hPa NO 1.6mph /  2.6km/h 4.6mph /  7.4km/h 57% 0in /  0.0mm
23:04 75.4 °F /  24.1 °C 59.4 °F /  15.2 °C 29.9in /  1011.7hPa NO 1.4mph /  2.2km/h 5mph /  8km/h 57.3% 0in /  0.0mm
23:09 75.2 °F /  24 °C 59.4 °F /  15.2 °C 29.9in /  1011.7hPa NO 0.9mph /  1.5km/h 4.6mph /  7.4km/h 58% 0in /  0.0mm
23:14 74.8 °F /  23.8 °C 59.5 °F /  15.3 °C 29.9in /  1011.7hPa Calm   5mph /  8km/h 58.8% 0in /  0.0mm
23:19 74.8 °F /  23.8 °C 59.5 °F /  15.3 °C 29.9in /  1011.8hPa NO 0.7mph /  1.2km/h 4.7mph /  7.6km/h 59% 0in /  0.0mm
23:24 74.7 °F /  23.7 °C 59.4 °F /  15.2 °C 29.9in /  1011.8hPa North 2mph /  3.2km/h 6.4mph /  10.3km/h 59.2% 0in /  0.0mm
23:29 73.9 °F /  23.3 °C 58.3 °F /  14.6 °C 29.9in /  1011.8hPa NE 2.5mph /  4.1km/h 7mph /  11.3km/h 58.2% 0in /  0.0mm
23:34 73.6 °F /  23.1 °C 58.6 °F /  14.8 °C 29.9in /  1011.9hPa NNE 3.6mph /  5.8km/h 7mph /  11.3km/h 59.5% 0in /  0.0mm
23:39 73.2 °F /  22.9 °C 58.6 °F /  14.8 °C 29.9in /  1011.9hPa NE 3.4mph /  5.5km/h 5mph /  8km/h 60.3% 0in /  0.0mm
23:44 73 °F /  22.8 °C 58.8 °F /  14.9 °C 29.9in /  1011.9hPa NNE 3.1mph /  5km/h 5.2mph /  8.4km/h 61% 0in /  0.0mm
23:49 72.9 °F /  22.7 °C 58.8 °F /  14.9 °C 29.9in /  1011.9hPa NE 2.9mph /  4.6km/h 5mph /  8km/h 61.4% 0in /  0.0mm
23:54 72.7 °F /  22.6 °C 59 °F /  15 °C 29.9in /  1011.9hPa NNE 2.4mph /  3.9km/h 5.2mph /  8.4km/h 62% 0in /  0.0mm
23:59 72.3 °F /  22.4 °C 59 °F /  15 °C 29.9in /  1011.9hPa ENE 2.4mph /  3.9km/h 5mph /  8km/h 62.9% 0in /  0.0mm
Murcia-Puente Tocinos, España
Compliments of Weather Underground - 3 mb

La estación de MeteoMurcia.com, publica sus datos en los siguientes proyectos:

Weather Underground PWS IMURCIAP2 Meteoclimatic www.awekas.at

W3Counter
Web Analytics